createdAt,value
2023-01-22T00:00:54.000Z,187
2023-01-22T00:02:10.000Z,183
2023-01-22T00:03:27.000Z,181
2023-01-22T00:04:43.000Z,182
2023-01-22T00:05:59.000Z,186
2023-01-22T00:07:15.000Z,187
2023-01-22T00:08:32.000Z,185
2023-01-22T00:09:48.000Z,180
2023-01-22T00:11:04.000Z,183
2023-01-22T00:12:19.000Z,181
2023-01-22T00:13:35.000Z,188
2023-01-22T00:14:52.000Z,188
2023-01-22T00:16:08.000Z,187
2023-01-22T00:17:24.000Z,187
2023-01-22T00:18:40.000Z,186
2023-01-22T00:19:57.000Z,187
2023-01-22T00:21:12.000Z,187
2023-01-22T00:22:27.000Z,180
2023-01-22T00:23:42.000Z,180
2023-01-22T00:24:58.000Z,182
2023-01-22T00:26:14.000Z,187
2023-01-22T00:27:30.000Z,185
2023-01-22T00:28:46.000Z,183
2023-01-22T00:30:03.000Z,187
2023-01-22T00:31:19.000Z,185
2023-01-22T00:32:35.000Z,187
2023-01-22T00:33:51.000Z,187
2023-01-22T00:35:08.000Z,186
2023-01-22T00:36:24.000Z,186
2023-01-22T00:37:40.000Z,188
2023-01-22T00:38:56.000Z,187
2023-01-22T00:40:12.000Z,187
2023-01-22T00:41:28.000Z,183
2023-01-22T00:42:44.000Z,186
2023-01-22T00:44:00.000Z,186
2023-01-22T00:45:16.000Z,186
2023-01-22T00:46:33.000Z,188
2023-01-22T00:47:49.000Z,188
2023-01-22T00:49:05.000Z,187
2023-01-22T00:50:21.000Z,184
2023-01-22T00:51:38.000Z,181
2023-01-22T00:52:54.000Z,181
2023-01-22T00:54:10.000Z,187
2023-01-22T00:55:26.000Z,187
2023-01-22T00:56:43.000Z,187
2023-01-22T00:57:58.000Z,184
2023-01-22T00:59:14.000Z,180
2023-01-22T01:00:30.000Z,188
2023-01-22T01:01:47.000Z,186
2023-01-22T01:03:03.000Z,182
2023-01-22T01:04:19.000Z,183
2023-01-22T01:05:35.000Z,184
2023-01-22T01:06:51.000Z,183
2023-01-22T01:08:08.000Z,185
2023-01-22T01:09:24.000Z,186
2023-01-22T01:10:40.000Z,181
2023-01-22T01:11:55.000Z,186
2023-01-22T01:13:11.000Z,181
2023-01-22T01:14:26.000Z,186
2023-01-22T01:15:41.000Z,186
2023-01-22T01:16:57.000Z,184
2023-01-22T01:18:14.000Z,187
2023-01-22T01:19:30.000Z,184
2023-01-22T01:20:46.000Z,180
2023-01-22T01:22:02.000Z,183
2023-01-22T01:23:19.000Z,188
2023-01-22T01:24:35.000Z,180
2023-01-22T01:25:51.000Z,182
2023-01-22T01:27:07.000Z,188
2023-01-22T01:28:24.000Z,187
2023-01-22T01:29:40.000Z,185
2023-01-22T01:30:56.000Z,185
2023-01-22T01:32:11.000Z,188
2023-01-22T01:33:27.000Z,188
2023-01-22T01:34:44.000Z,185
2023-01-22T01:36:00.000Z,188
2023-01-22T01:37:16.000Z,186
2023-01-22T01:38:32.000Z,183
2023-01-22T01:39:49.000Z,188
2023-01-22T01:41:04.000Z,188
2023-01-22T01:42:19.000Z,188
2023-01-22T01:43:35.000Z,187
2023-01-22T01:44:52.000Z,188
2023-01-22T01:46:08.000Z,187
2023-01-22T01:47:24.000Z,187
2023-01-22T01:48:39.000Z,186
2023-01-22T01:49:55.000Z,181
2023-01-22T01:51:11.000Z,185
2023-01-22T01:52:27.000Z,186
2023-01-22T01:53:43.000Z,186
2023-01-22T01:55:00.000Z,189
2023-01-22T01:56:16.000Z,188
2023-01-22T01:57:32.000Z,188
2023-01-22T01:58:48.000Z,188
2023-01-22T02:00:05.000Z,187
2023-01-22T02:01:21.000Z,183
2023-01-22T02:02:37.000Z,189
2023-01-22T02:03:53.000Z,187
2023-01-22T02:05:09.000Z,187
2023-01-22T02:06:25.000Z,182
2023-01-22T02:07:41.000Z,188
2023-01-22T02:08:57.000Z,187
2023-01-22T02:10:13.000Z,183
2023-01-22T02:11:30.000Z,188
2023-01-22T02:12:46.000Z,181
2023-01-22T02:14:02.000Z,184
2023-01-22T02:15:17.000Z,184
2023-01-22T02:16:33.000Z,188
2023-01-22T02:17:48.000Z,187
2023-01-22T02:19:03.000Z,189
2023-01-22T02:20:19.000Z,189
2023-01-22T02:21:36.000Z,191
2023-01-22T02:22:52.000Z,192
2023-01-22T02:24:08.000Z,192
2023-01-22T02:25:24.000Z,189
2023-01-22T02:26:41.000Z,186
2023-01-22T02:27:57.000Z,185
2023-01-22T02:29:13.000Z,189
2023-01-22T02:30:29.000Z,190
2023-01-22T02:31:45.000Z,189
2023-01-22T02:33:02.000Z,189
2023-01-22T02:34:18.000Z,189
2023-01-22T02:35:33.000Z,189
2023-01-22T02:36:49.000Z,187
2023-01-22T02:38:06.000Z,183
2023-01-22T02:39:22.000Z,184
2023-01-22T02:40:38.000Z,187
2023-01-22T02:41:54.000Z,186
2023-01-22T02:43:11.000Z,187
2023-01-22T02:44:26.000Z,184
2023-01-22T02:45:41.000Z,182
2023-01-22T02:46:57.000Z,181
2023-01-22T02:48:14.000Z,188
2023-01-22T02:49:29.000Z,185
2023-01-22T02:50:44.000Z,180
2023-01-22T02:52:00.000Z,183
2023-01-22T02:53:17.000Z,185
2023-01-22T02:54:33.000Z,185
2023-01-22T02:55:49.000Z,187
2023-01-22T02:57:05.000Z,183
2023-01-22T02:58:22.000Z,187
2023-01-22T02:59:38.000Z,183
2023-01-22T03:00:54.000Z,188
2023-01-22T03:02:10.000Z,188
2023-01-22T03:03:26.000Z,187
2023-01-22T03:04:43.000Z,182
2023-01-22T03:05:59.000Z,185
2023-01-22T03:07:14.000Z,189
2023-01-22T03:08:30.000Z,190
2023-01-22T03:09:47.000Z,190
2023-01-22T03:11:03.000Z,189
2023-01-22T03:12:19.000Z,190
2023-01-22T03:13:35.000Z,190
2023-01-22T03:14:52.000Z,188
2023-01-22T03:16:07.000Z,186
2023-01-22T03:17:22.000Z,188
2023-01-22T03:18:37.000Z,191
2023-01-22T03:19:53.000Z,187
2023-01-22T03:21:09.000Z,194
2023-01-22T03:22:25.000Z,193
2023-01-22T03:23:41.000Z,196
2023-01-22T03:24:58.000Z,198
2023-01-22T03:26:14.000Z,201
2023-01-22T03:27:30.000Z,202
2023-01-22T03:28:46.000Z,206
2023-01-22T03:30:02.000Z,212
2023-01-22T03:31:19.000Z,207
2023-01-22T03:32:35.000Z,200
2023-01-22T03:33:51.000Z,203
2023-01-22T03:35:07.000Z,209
2023-01-22T03:36:23.000Z,193
2023-01-22T03:37:39.000Z,166
2023-01-22T03:38:55.000Z,189
2023-01-22T03:40:11.000Z,196
2023-01-22T03:41:28.000Z,204
2023-01-22T03:42:44.000Z,203
2023-01-22T03:44:00.000Z,175
2023-01-22T03:45:16.000Z,104
2023-01-22T03:46:33.000Z,108
2023-01-22T03:47:49.000Z,111
2023-01-22T03:49:05.000Z,109
2023-01-22T03:50:20.000Z,110
2023-01-22T03:51:37.000Z,103
2023-01-22T03:52:53.000Z,106
2023-01-22T03:54:09.000Z,106
2023-01-22T03:55:25.000Z,100
2023-01-22T03:56:41.000Z,98
2023-01-22T03:57:58.000Z,101
2023-01-22T03:59:14.000Z,98
2023-01-22T04:00:30.000Z,98
2023-01-22T04:01:46.000Z,98
2023-01-22T04:03:03.000Z,97
2023-01-22T04:04:19.000Z,101
2023-01-22T04:05:35.000Z,100
2023-01-22T04:06:50.000Z,100
2023-01-22T04:08:07.000Z,97
2023-01-22T04:09:23.000Z,99
2023-01-22T04:10:39.000Z,99
2023-01-22T04:11:55.000Z,99
2023-01-22T04:13:12.000Z,99
2023-01-22T04:14:28.000Z,98
2023-01-22T04:15:44.000Z,99
2023-01-22T04:17:00.000Z,99
2023-01-22T04:18:16.000Z,98
2023-01-22T04:19:33.000Z,97
2023-01-22T04:20:49.000Z,98
2023-01-22T04:22:05.000Z,96
2023-01-22T04:23:20.000Z,98
2023-01-22T04:24:37.000Z,96
2023-01-22T04:25:53.000Z,96
2023-01-22T04:27:09.000Z,99
2023-01-22T04:28:25.000Z,99
2023-01-22T04:29:42.000Z,98
2023-01-22T04:30:58.000Z,98
2023-01-22T04:32:14.000Z,98
2023-01-22T04:33:30.000Z,93
2023-01-22T04:34:47.000Z,95
2023-01-22T04:36:03.000Z,98
2023-01-22T04:37:19.000Z,95
2023-01-22T04:38:35.000Z,95
2023-01-22T04:39:50.000Z,94
2023-01-22T04:41:07.000Z,94
2023-01-22T04:42:23.000Z,95
2023-01-22T04:43:39.000Z,92
2023-01-22T04:44:55.000Z,93
2023-01-22T04:46:12.000Z,93
2023-01-22T04:47:28.000Z,92
2023-01-22T04:48:44.000Z,94
2023-01-22T04:50:00.000Z,94
2023-01-22T04:51:17.000Z,93
2023-01-22T04:52:33.000Z,97
2023-01-22T04:53:49.000Z,96
2023-01-22T04:55:05.000Z,94
2023-01-22T04:56:21.000Z,96
2023-01-22T04:57:37.000Z,96
2023-01-22T04:58:53.000Z,94
2023-01-22T05:00:09.000Z,96
2023-01-22T05:01:25.000Z,97
2023-01-22T05:02:42.000Z,95
2023-01-22T05:03:58.000Z,95
2023-01-22T05:05:14.000Z,97
2023-01-22T05:06:30.000Z,92
2023-01-22T05:07:47.000Z,92
2023-01-22T05:09:03.000Z,94
2023-01-22T05:10:19.000Z,96
2023-01-22T05:11:35.000Z,95
2023-01-22T05:12:51.000Z,92
2023-01-22T05:14:07.000Z,94
2023-01-22T05:15:23.000Z,96
2023-01-22T05:16:39.000Z,95
2023-01-22T05:17:56.000Z,93
2023-01-22T05:19:12.000Z,95
2023-01-22T05:20:28.000Z,94
2023-01-22T05:21:44.000Z,94
2023-01-22T05:23:00.000Z,95
2023-01-22T05:24:17.000Z,95
2023-01-22T05:25:33.000Z,91
2023-01-22T05:26:49.000Z,93
2023-01-22T05:28:05.000Z,90
2023-01-22T05:29:21.000Z,93
2023-01-22T05:30:37.000Z,92
2023-01-22T05:31:53.000Z,92
2023-01-22T05:33:09.000Z,91
2023-01-22T05:34:26.000Z,88
2023-01-22T05:35:42.000Z,87
2023-01-22T05:36:57.000Z,89
2023-01-22T05:38:12.000Z,86
2023-01-22T05:39:28.000Z,85
2023-01-22T05:40:43.000Z,85
2023-01-22T05:41:59.000Z,84
2023-01-22T05:43:15.000Z,85
2023-01-22T05:44:32.000Z,81
2023-01-22T05:45:48.000Z,83
2023-01-22T05:47:04.000Z,79
2023-01-22T05:48:20.000Z,79
2023-01-22T05:49:37.000Z,77
2023-01-22T05:50:53.000Z,76
2023-01-22T05:52:09.000Z,73
2023-01-22T05:53:25.000Z,72
2023-01-22T05:54:41.000Z,74
2023-01-22T05:55:58.000Z,70
2023-01-22T05:57:13.000Z,70
2023-01-22T05:58:29.000Z,70
2023-01-22T05:59:45.000Z,68
2023-01-22T06:01:02.000Z,65
2023-01-22T06:02:18.000Z,66
2023-01-22T06:03:34.000Z,64
2023-01-22T06:04:50.000Z,65
2023-01-22T06:06:07.000Z,64
2023-01-22T06:07:23.000Z,62
2023-01-22T06:08:39.000Z,62
2023-01-22T06:09:55.000Z,62
2023-01-22T06:11:12.000Z,61
2023-01-22T06:12:28.000Z,60
2023-01-22T06:13:43.000Z,60
2023-01-22T06:14:59.000Z,59
2023-01-22T06:16:15.000Z,58
2023-01-22T06:17:32.000Z,58
2023-01-22T06:18:48.000Z,58
2023-01-22T06:20:04.000Z,55
2023-01-22T06:21:20.000Z,56
2023-01-22T06:22:37.000Z,55
2023-01-22T06:23:53.000Z,53
2023-01-22T06:25:09.000Z,54
2023-01-22T06:26:25.000Z,53
2023-01-22T06:27:42.000Z,55
2023-01-22T06:28:58.000Z,53
2023-01-22T06:30:13.000Z,53
2023-01-22T06:31:29.000Z,52
2023-01-22T06:32:46.000Z,51
2023-01-22T06:34:02.000Z,52
2023-01-22T06:35:18.000Z,54
2023-01-22T06:36:34.000Z,54
2023-01-22T06:37:50.000Z,52
2023-01-22T06:39:07.000Z,51
2023-01-22T06:40:23.000Z,55
2023-01-22T06:41:39.000Z,52
2023-01-22T06:42:55.000Z,52
2023-01-22T06:44:12.000Z,51
2023-01-22T06:45:28.000Z,52
2023-01-22T06:46:43.000Z,53
2023-01-22T06:47:59.000Z,52
2023-01-22T06:49:16.000Z,53
2023-01-22T06:50:32.000Z,53
2023-01-22T06:51:48.000Z,53
2023-01-22T06:53:04.000Z,51
2023-01-22T06:54:20.000Z,52
2023-01-22T06:55:35.000Z,53
2023-01-22T06:56:50.000Z,52
2023-01-22T06:58:05.000Z,51
2023-01-22T06:59:22.000Z,54
2023-01-22T07:00:38.000Z,53
2023-01-22T07:01:54.000Z,54
2023-01-22T07:03:10.000Z,53
2023-01-22T07:04:27.000Z,54
2023-01-22T07:05:43.000Z,55
2023-01-22T07:06:59.000Z,55
2023-01-22T07:08:15.000Z,54
2023-01-22T07:09:31.000Z,55
2023-01-22T07:10:48.000Z,58
2023-01-22T07:12:04.000Z,58
2023-01-22T07:13:20.000Z,56
2023-01-22T07:14:35.000Z,58
2023-01-22T07:15:52.000Z,57
2023-01-22T07:17:08.000Z,58
2023-01-22T07:18:24.000Z,59
2023-01-22T07:19:40.000Z,59
2023-01-22T07:20:57.000Z,61
2023-01-22T07:22:13.000Z,60
2023-01-22T07:23:29.000Z,61
2023-01-22T07:24:45.000Z,50
2023-01-22T07:26:02.000Z,10
2023-01-22T07:27:18.000Z,13
2023-01-22T07:28:34.000Z,17
2023-01-22T07:29:50.000Z,16
2023-01-22T07:31:05.000Z,18
2023-01-22T07:32:22.000Z,19
2023-01-22T07:33:38.000Z,20
2023-01-22T07:34:54.000Z,21
2023-01-22T07:36:10.000Z,22
2023-01-22T07:37:27.000Z,23
2023-01-22T07:38:43.000Z,25
2023-01-22T07:39:59.000Z,27
2023-01-22T07:41:15.000Z,28
2023-01-22T07:42:32.000Z,28
2023-01-22T07:43:48.000Z,35
2023-01-22T07:45:04.000Z,37
2023-01-22T07:46:20.000Z,37
2023-01-22T07:47:36.000Z,41
2023-01-22T07:48:51.000Z,43
2023-01-22T07:50:06.000Z,46
2023-01-22T07:51:22.000Z,49
2023-01-22T07:52:39.000Z,49
2023-01-22T07:53:54.000Z,54
2023-01-22T07:55:09.000Z,59
2023-01-22T07:56:25.000Z,63
2023-01-22T07:57:42.000Z,69
2023-01-22T07:58:58.000Z,68
2023-01-22T08:00:14.000Z,76
2023-01-22T08:01:30.000Z,80
2023-01-22T08:02:46.000Z,82
2023-01-22T08:04:03.000Z,83
2023-01-22T08:05:18.000Z,87
2023-01-22T08:06:34.000Z,91
2023-01-22T08:07:50.000Z,100
2023-01-22T08:09:07.000Z,90
2023-01-22T08:10:23.000Z,94
2023-01-22T08:11:39.000Z,91
2023-01-22T08:12:55.000Z,107
2023-01-22T08:14:12.000Z,107
2023-01-22T08:15:28.000Z,110
2023-01-22T08:16:44.000Z,112
2023-01-22T08:18:00.000Z,96
2023-01-22T08:19:17.000Z,105
2023-01-22T08:20:33.000Z,123
2023-01-22T08:21:48.000Z,131
2023-01-22T08:23:03.000Z,121
2023-01-22T08:24:19.000Z,124
2023-01-22T08:25:34.000Z,125
2023-01-22T08:26:49.000Z,127
2023-01-22T08:28:05.000Z,127
2023-01-22T08:29:22.000Z,120
2023-01-22T08:30:38.000Z,126
2023-01-22T08:31:54.000Z,132
2023-01-22T08:33:10.000Z,153
2023-01-22T08:34:26.000Z,150
2023-01-22T08:35:43.000Z,149
2023-01-22T08:36:59.000Z,149
2023-01-22T08:38:15.000Z,150
2023-01-22T08:39:31.000Z,149
2023-01-22T08:40:48.000Z,168
2023-01-22T08:42:04.000Z,165
2023-01-22T08:43:19.000Z,155
2023-01-22T08:44:35.000Z,159
2023-01-22T08:45:52.000Z,157
2023-01-22T08:47:08.000Z,187
2023-01-22T08:48:24.000Z,236
2023-01-22T08:49:40.000Z,251
2023-01-22T08:50:57.000Z,242
2023-01-22T08:52:13.000Z,254
2023-01-22T08:53:29.000Z,257
2023-01-22T08:54:45.000Z,237
2023-01-22T08:56:01.000Z,228
2023-01-22T08:57:18.000Z,263
2023-01-22T08:58:34.000Z,266
2023-01-22T08:59:49.000Z,299
2023-01-22T09:01:05.000Z,318
2023-01-22T09:02:22.000Z,281
2023-01-22T09:03:37.000Z,288
2023-01-22T09:04:52.000Z,338
2023-01-22T09:06:08.000Z,323
2023-01-22T09:07:25.000Z,288
2023-01-22T09:08:41.000Z,289
2023-01-22T09:09:56.000Z,263
2023-01-22T09:11:11.000Z,279
2023-01-22T09:12:28.000Z,247
2023-01-22T09:13:44.000Z,252
2023-01-22T09:15:00.000Z,281
2023-01-22T09:16:16.000Z,262
2023-01-22T09:17:33.000Z,283
2023-01-22T09:18:49.000Z,256
2023-01-22T09:20:05.000Z,250
2023-01-22T09:21:21.000Z,242
2023-01-22T09:22:37.000Z,248
2023-01-22T09:23:54.000Z,239
2023-01-22T09:25:10.000Z,266
2023-01-22T09:26:26.000Z,246
2023-01-22T09:27:41.000Z,233
2023-01-22T09:28:58.000Z,253
2023-01-22T09:30:14.000Z,278
2023-01-22T09:31:30.000Z,268
2023-01-22T09:32:46.000Z,263
2023-01-22T09:34:03.000Z,288
2023-01-22T09:35:19.000Z,263
2023-01-22T09:36:35.000Z,232
2023-01-22T09:37:51.000Z,216
2023-01-22T09:39:08.000Z,249
2023-01-22T09:40:24.000Z,283
2023-01-22T09:41:40.000Z,281
2023-01-22T09:42:56.000Z,291
2023-01-22T09:44:12.000Z,335
2023-01-22T09:45:28.000Z,353
2023-01-22T09:46:44.000Z,398
2023-01-22T09:48:00.000Z,426
2023-01-22T09:49:16.000Z,393
2023-01-22T09:50:33.000Z,447
2023-01-22T09:51:48.000Z,486
2023-01-22T09:53:03.000Z,485
2023-01-22T09:54:19.000Z,482
2023-01-22T09:55:36.000Z,488
2023-01-22T09:56:52.000Z,460
2023-01-22T09:58:07.000Z,469
2023-01-22T09:59:22.000Z,420
2023-01-22T10:00:39.000Z,391
2023-01-22T10:01:55.000Z,374
2023-01-22T10:03:11.000Z,347
2023-01-22T10:04:27.000Z,372
2023-01-22T10:05:44.000Z,339
2023-01-22T10:07:00.000Z,353
2023-01-22T10:08:16.000Z,359
2023-01-22T10:09:32.000Z,389
2023-01-22T10:10:49.000Z,402
2023-01-22T10:12:05.000Z,409
2023-01-22T10:13:21.000Z,509
2023-01-22T10:14:37.000Z,498
2023-01-22T10:15:52.000Z,534
2023-01-22T10:17:09.000Z,595
2023-01-22T10:18:25.000Z,638
2023-01-22T10:19:41.000Z,679
2023-01-22T10:20:57.000Z,816
2023-01-22T10:22:14.000Z,809
2023-01-22T10:23:30.000Z,742
2023-01-22T10:24:45.000Z,748
2023-01-22T10:26:00.000Z,750
2023-01-22T10:27:17.000Z,735
2023-01-22T10:28:33.000Z,749
2023-01-22T10:29:48.000Z,675
2023-01-22T10:31:03.000Z,764
2023-01-22T10:32:20.000Z,858
2023-01-22T10:33:36.000Z,914
2023-01-22T10:34:52.000Z,997
2023-01-22T10:36:08.000Z,1013
2023-01-22T10:37:25.000Z,939
2023-01-22T10:38:41.000Z,1049
2023-01-22T10:39:57.000Z,1011
2023-01-22T10:41:13.000Z,922
2023-01-22T10:42:29.000Z,1031
2023-01-22T10:43:46.000Z,1091
2023-01-22T10:45:02.000Z,1269
2023-01-22T10:46:18.000Z,1301
2023-01-22T10:47:33.000Z,1220
2023-01-22T10:48:50.000Z,1241
2023-01-22T10:50:06.000Z,1233
2023-01-22T10:51:22.000Z,1333
2023-01-22T10:52:38.000Z,1316
2023-01-22T10:53:55.000Z,1373
2023-01-22T10:55:11.000Z,1348
2023-01-22T10:56:26.000Z,1338
2023-01-22T10:57:41.000Z,1396
2023-01-22T10:58:58.000Z,1523
2023-01-22T11:00:14.000Z,1484
2023-01-22T11:01:30.000Z,1388
2023-01-22T11:02:45.000Z,1403
2023-01-22T11:04:01.000Z,1499
2023-01-22T11:05:17.000Z,1469
2023-01-22T11:06:33.000Z,1254
2023-01-22T11:07:49.000Z,984
2023-01-22T11:09:06.000Z,938
2023-01-22T11:10:22.000Z,1126
2023-01-22T11:11:38.000Z,1074
2023-01-22T11:12:54.000Z,1092
2023-01-22T11:14:10.000Z,1201
2023-01-22T11:15:27.000Z,1300
2023-01-22T11:16:43.000Z,1392
2023-01-22T11:17:59.000Z,1221
2023-01-22T11:19:15.000Z,1082
2023-01-22T11:20:31.000Z,937
2023-01-22T11:21:47.000Z,863
2023-01-22T11:23:03.000Z,795
2023-01-22T11:24:19.000Z,854
2023-01-22T11:25:36.000Z,805
2023-01-22T11:26:52.000Z,921
2023-01-22T11:28:08.000Z,1012
2023-01-22T11:29:23.000Z,1056
2023-01-22T11:30:39.000Z,1058
2023-01-22T11:31:55.000Z,1155
2023-01-22T11:33:10.000Z,1380
2023-01-22T11:34:25.000Z,1296
2023-01-22T11:35:42.000Z,1231
2023-01-22T11:36:58.000Z,1265
2023-01-22T11:38:14.000Z,1339
2023-01-22T11:39:30.000Z,1368
2023-01-22T11:40:46.000Z,1463
2023-01-22T11:42:03.000Z,1694
2023-01-22T11:43:19.000Z,1820
2023-01-22T11:44:35.000Z,1792
2023-01-22T11:45:51.000Z,1679
2023-01-22T11:47:08.000Z,2023
2023-01-22T11:48:24.000Z,1936
2023-01-22T11:49:40.000Z,2285
2023-01-22T11:50:55.000Z,2343
2023-01-22T11:52:12.000Z,2336
2023-01-22T11:53:28.000Z,2415
2023-01-22T11:54:44.000Z,2313
2023-01-22T11:56:00.000Z,2269
2023-01-22T11:57:17.000Z,2618
2023-01-22T11:58:33.000Z,2160
2023-01-22T11:59:48.000Z,2115
2023-01-22T12:01:03.000Z,1726
2023-01-22T12:02:20.000Z,1556
2023-01-22T12:03:36.000Z,1787
2023-01-22T12:04:52.000Z,1942
2023-01-22T12:06:08.000Z,2045
2023-01-22T12:07:24.000Z,1809
2023-01-22T12:08:41.000Z,1633
2023-01-22T12:09:57.000Z,1727
2023-01-22T12:11:13.000Z,1725
2023-01-22T12:12:29.000Z,1773
2023-01-22T12:13:46.000Z,2126
2023-01-22T12:15:02.000Z,1968
2023-01-22T12:16:18.000Z,1933
2023-01-22T12:17:33.000Z,1794
2023-01-22T12:18:50.000Z,1459
2023-01-22T12:20:05.000Z,1578
2023-01-22T12:21:21.000Z,1879
2023-01-22T12:22:37.000Z,1820
2023-01-22T12:23:54.000Z,1749
2023-01-22T12:25:10.000Z,1608
2023-01-22T12:26:25.000Z,1684
2023-01-22T12:27:40.000Z,1478
2023-01-22T12:28:56.000Z,1557
2023-01-22T12:30:11.000Z,1488
2023-01-22T12:31:27.000Z,1522
2023-01-22T12:32:43.000Z,1403
2023-01-22T12:34:00.000Z,1394
2023-01-22T12:35:15.000Z,1369
2023-01-22T12:36:30.000Z,1385
2023-01-22T12:37:46.000Z,1251
2023-01-22T12:39:03.000Z,1167
2023-01-22T12:40:19.000Z,1391
2023-01-22T12:41:35.000Z,1416
2023-01-22T12:42:51.000Z,1403
2023-01-22T12:44:07.000Z,1368
2023-01-22T12:45:24.000Z,1221
2023-01-22T12:46:40.000Z,1191
2023-01-22T12:47:56.000Z,1149
2023-01-22T12:49:12.000Z,1203
2023-01-22T12:50:29.000Z,1255
2023-01-22T12:51:45.000Z,1268
2023-01-22T12:53:00.000Z,1390
2023-01-22T12:54:16.000Z,1402
2023-01-22T12:55:33.000Z,1556
2023-01-22T12:56:49.000Z,1817
2023-01-22T12:58:05.000Z,1843
2023-01-22T12:59:21.000Z,1627
2023-01-22T13:00:38.000Z,1733
2023-01-22T13:01:53.000Z,1627
2023-01-22T13:03:08.000Z,1645
2023-01-22T13:04:23.000Z,1631
2023-01-22T13:05:39.000Z,1925
2023-01-22T13:06:55.000Z,1986
2023-01-22T13:08:11.000Z,1786
2023-01-22T13:09:27.000Z,1625
2023-01-22T13:10:43.000Z,1594
2023-01-22T13:12:00.000Z,1591
2023-01-22T13:13:16.000Z,1417
2023-01-22T13:14:32.000Z,1282
2023-01-22T13:15:48.000Z,1224
2023-01-22T13:17:05.000Z,1262
2023-01-22T13:18:21.000Z,1370
2023-01-22T13:19:37.000Z,1355
2023-01-22T13:20:53.000Z,1664
2023-01-22T13:22:09.000Z,1752
2023-01-22T13:23:25.000Z,1737
2023-01-22T13:24:41.000Z,1717
2023-01-22T13:25:57.000Z,1518
2023-01-22T13:27:14.000Z,1676
2023-01-22T13:28:30.000Z,1752
2023-01-22T13:29:46.000Z,1735
2023-01-22T13:31:01.000Z,1909
2023-01-22T13:32:17.000Z,1816
2023-01-22T13:33:33.000Z,1537
2023-01-22T13:34:48.000Z,1630
2023-01-22T13:36:03.000Z,1530
2023-01-22T13:37:20.000Z,1482
2023-01-22T13:38:36.000Z,1769
2023-01-22T13:39:52.000Z,2005
2023-01-22T13:41:08.000Z,1912
2023-01-22T13:42:24.000Z,1818
2023-01-22T13:43:41.000Z,1742
2023-01-22T13:44:57.000Z,1778
2023-01-22T13:46:13.000Z,2164
2023-01-22T13:47:29.000Z,1692
2023-01-22T13:48:46.000Z,1822
2023-01-22T13:50:02.000Z,1670
2023-01-22T13:51:18.000Z,1756
2023-01-22T13:52:33.000Z,1863
2023-01-22T13:53:50.000Z,1725
2023-01-22T13:55:06.000Z,1784
2023-01-22T13:56:22.000Z,1710
2023-01-22T13:57:38.000Z,1607
2023-01-22T13:58:55.000Z,1621
2023-01-22T14:00:11.000Z,1510
2023-01-22T14:01:26.000Z,1592
2023-01-22T14:02:41.000Z,1546
2023-01-22T14:03:58.000Z,1501
2023-01-22T14:05:14.000Z,1669
2023-01-22T14:06:30.000Z,1485
2023-01-22T14:07:46.000Z,1543
2023-01-22T14:09:02.000Z,1517
2023-01-22T14:10:19.000Z,1476
2023-01-22T14:11:35.000Z,1517
2023-01-22T14:12:51.000Z,1326
2023-01-22T14:14:07.000Z,1337
2023-01-22T14:15:24.000Z,1246
2023-01-22T14:16:40.000Z,1295
2023-01-22T14:17:56.000Z,1348
2023-01-22T14:19:11.000Z,1319
2023-01-22T14:20:28.000Z,1170
2023-01-22T14:21:44.000Z,1104
2023-01-22T14:23:00.000Z,1103
2023-01-22T14:24:16.000Z,1157
2023-01-22T14:25:33.000Z,1071
2023-01-22T14:26:49.000Z,954
2023-01-22T14:28:04.000Z,1125
2023-01-22T14:29:19.000Z,1075
2023-01-22T14:30:35.000Z,1053
2023-01-22T14:31:50.000Z,954
2023-01-22T14:33:05.000Z,1012
2023-01-22T14:34:20.000Z,854
2023-01-22T14:35:37.000Z,924
2023-01-22T14:36:53.000Z,799
2023-01-22T14:38:09.000Z,761
2023-01-22T14:39:25.000Z,801
2023-01-22T14:40:41.000Z,724
2023-01-22T14:41:58.000Z,694
2023-01-22T14:43:14.000Z,694
2023-01-22T14:44:30.000Z,696
2023-01-22T14:45:46.000Z,676
2023-01-22T14:47:03.000Z,591
2023-01-22T14:48:19.000Z,727
2023-01-22T14:49:35.000Z,645
2023-01-22T14:50:50.000Z,610
2023-01-22T14:52:07.000Z,610
2023-01-22T14:53:23.000Z,600
2023-01-22T14:54:39.000Z,561
2023-01-22T14:55:55.000Z,552
2023-01-22T14:57:12.000Z,539
2023-01-22T14:58:28.000Z,481
2023-01-22T14:59:43.000Z,471
2023-01-22T15:00:58.000Z,483
2023-01-22T15:02:14.000Z,504
2023-01-22T15:03:31.000Z,509
2023-01-22T15:04:47.000Z,493
2023-01-22T15:06:03.000Z,476
2023-01-22T15:07:19.000Z,458
2023-01-22T15:08:36.000Z,486
2023-01-22T15:09:52.000Z,463
2023-01-22T15:11:08.000Z,462
2023-01-22T15:12:24.000Z,433
2023-01-22T15:13:41.000Z,410
2023-01-22T15:14:57.000Z,396
2023-01-22T15:16:13.000Z,369
2023-01-22T15:17:28.000Z,337
2023-01-22T15:18:45.000Z,299
2023-01-22T15:20:01.000Z,279
2023-01-22T15:21:17.000Z,258
2023-01-22T15:22:33.000Z,264
2023-01-22T15:23:49.000Z,294
2023-01-22T15:25:06.000Z,307
2023-01-22T15:26:21.000Z,288
2023-01-22T15:27:36.000Z,262
2023-01-22T15:28:52.000Z,250
2023-01-22T15:30:08.000Z,235
2023-01-22T15:31:23.000Z,227
2023-01-22T15:32:39.000Z,225
2023-01-22T15:33:54.000Z,211
2023-01-22T15:35:10.000Z,202
2023-01-22T15:36:26.000Z,204
2023-01-22T15:37:42.000Z,196
2023-01-22T15:38:58.000Z,186
2023-01-22T15:40:15.000Z,176
2023-01-22T15:41:31.000Z,156
2023-01-22T15:42:47.000Z,138
2023-01-22T15:44:03.000Z,130
2023-01-22T15:45:20.000Z,127
2023-01-22T15:46:36.000Z,120
2023-01-22T15:47:52.000Z,113
2023-01-22T15:49:08.000Z,106
2023-01-22T15:50:25.000Z,96
2023-01-22T15:51:40.000Z,89
2023-01-22T15:52:56.000Z,84
2023-01-22T15:54:12.000Z,77
2023-01-22T15:55:29.000Z,70
2023-01-22T15:56:45.000Z,66
2023-01-22T15:58:01.000Z,62
2023-01-22T15:59:17.000Z,55
2023-01-22T16:00:32.000Z,51
2023-01-22T16:01:48.000Z,47
2023-01-22T16:03:04.000Z,43
2023-01-22T16:04:20.000Z,38
2023-01-22T16:05:36.000Z,31
2023-01-22T16:06:53.000Z,12
2023-01-22T16:08:09.000Z,213
2023-01-22T16:09:25.000Z,211
2023-01-22T16:10:41.000Z,206
2023-01-22T16:11:57.000Z,200
2023-01-22T16:13:12.000Z,198
2023-01-22T16:14:28.000Z,201
2023-01-22T16:15:44.000Z,199
2023-01-22T16:17:01.000Z,194
2023-01-22T16:18:17.000Z,198
2023-01-22T16:19:33.000Z,193
2023-01-22T16:20:49.000Z,194
2023-01-22T16:22:06.000Z,192
2023-01-22T16:23:22.000Z,188
2023-01-22T16:24:38.000Z,186
2023-01-22T16:25:54.000Z,186
2023-01-22T16:27:10.000Z,186
2023-01-22T16:28:27.000Z,187
2023-01-22T16:29:42.000Z,188
2023-01-22T16:30:58.000Z,189
2023-01-22T16:32:14.000Z,187
2023-01-22T16:33:31.000Z,189
2023-01-22T16:34:46.000Z,183
2023-01-22T16:36:02.000Z,184
2023-01-22T16:37:18.000Z,188
2023-01-22T16:38:34.000Z,187
2023-01-22T16:39:49.000Z,186
2023-01-22T16:41:05.000Z,187
2023-01-22T16:42:21.000Z,186
2023-01-22T16:43:38.000Z,188
2023-01-22T16:44:54.000Z,189
2023-01-22T16:46:09.000Z,186
2023-01-22T16:47:24.000Z,186
2023-01-22T16:48:41.000Z,189
2023-01-22T16:49:57.000Z,185
2023-01-22T16:51:13.000Z,185
2023-01-22T16:52:29.000Z,186
2023-01-22T16:53:46.000Z,186
2023-01-22T16:55:02.000Z,187
2023-01-22T16:56:18.000Z,187
2023-01-22T16:57:34.000Z,188
2023-01-22T16:58:50.000Z,187
2023-01-22T17:00:07.000Z,182
2023-01-22T17:01:23.000Z,187
2023-01-22T17:02:39.000Z,181
2023-01-22T17:03:54.000Z,186
2023-01-22T17:05:11.000Z,187
2023-01-22T17:06:27.000Z,187
2023-01-22T17:07:43.000Z,188
2023-01-22T17:08:59.000Z,186
2023-01-22T17:10:16.000Z,181
2023-01-22T17:11:32.000Z,182
2023-01-22T17:12:48.000Z,188
2023-01-22T17:14:04.000Z,184
2023-01-22T17:15:21.000Z,182
2023-01-22T17:16:37.000Z,182
2023-01-22T17:17:53.000Z,187
2023-01-22T17:19:09.000Z,186
2023-01-22T17:20:24.000Z,186
2023-01-22T17:21:41.000Z,182
2023-01-22T17:22:57.000Z,187
2023-01-22T17:24:13.000Z,186
2023-01-22T17:25:29.000Z,180
2023-01-22T17:26:46.000Z,182
2023-01-22T17:28:02.000Z,184
2023-01-22T17:29:18.000Z,182